createdAt,value
2022-12-26T00:02:01.069Z,5.15
2022-12-26T00:04:49.891Z,5.18
2022-12-26T00:07:20.102Z,5.18
2022-12-26T00:09:53.294Z,5.28
2022-12-26T00:12:22.781Z,5.21
2022-12-26T00:14:52.388Z,5.17
2022-12-26T00:17:21.935Z,5.19
2022-12-26T00:19:51.625Z,5.18
2022-12-26T00:22:21.139Z,5.14
2022-12-26T00:24:53.233Z,5.18
2022-12-26T00:27:22.827Z,5.23
2022-12-26T00:29:52.693Z,5.32
2022-12-26T00:32:22.185Z,5.30
2022-12-26T00:34:51.649Z,5.35
2022-12-26T00:37:21.080Z,5.31
2022-12-26T00:39:53.183Z,5.26
2022-12-26T00:42:22.654Z,5.24
2022-12-26T00:44:52.185Z,5.18
2022-12-26T00:47:22.020Z,5.12
2022-12-26T00:50:12.577Z,5.09
2022-12-26T00:52:40.933Z,5.10
2022-12-26T00:55:13.445Z,5.08
2022-12-26T00:57:42.950Z,5.10
2022-12-26T01:00:13.725Z,5.10
2022-12-26T01:02:44.551Z,5.10
2022-12-26T01:05:14.367Z,5.09
2022-12-26T01:08:22.019Z,5.07
2022-12-26T01:10:36.438Z,5.06
2022-12-26T01:13:05.913Z,5.06
2022-12-26T01:15:35.364Z,5.11
2022-12-26T01:18:04.956Z,5.08
2022-12-26T01:20:34.484Z,5.06
2022-12-26T01:23:04.021Z,5.10
2022-12-26T01:25:36.136Z,5.12
2022-12-26T01:28:25.580Z,5.16
2022-12-26T01:30:55.294Z,5.15
2022-12-26T01:33:24.798Z,5.16
2022-12-26T01:35:54.898Z,5.19
2022-12-26T01:38:27.550Z,5.22
2022-12-26T01:41:11.861Z,5.23
2022-12-26T01:43:59.511Z,5.36
2022-12-26T01:46:33.355Z,5.39
2022-12-26T01:49:05.199Z,5.46
2022-12-26T01:51:37.306Z,5.49
2022-12-26T01:54:41.135Z,5.49
2022-12-26T01:57:00.780Z,5.36
2022-12-26T01:59:31.956Z,5.36
2022-12-26T02:02:02.667Z,5.38
2022-12-26T02:04:47.631Z,5.39
2022-12-26T02:07:17.027Z,5.39
2022-12-26T02:09:46.799Z,5.39
2022-12-26T02:12:35.808Z,5.43
2022-12-26T02:15:10.331Z,5.44
2022-12-26T02:17:40.219Z,5.41
2022-12-26T02:20:18.403Z,5.41
2022-12-26T02:23:08.356Z,5.41
2022-12-26T02:25:59.827Z,5.34
2022-12-26T02:28:47.400Z,5.40
2022-12-26T02:31:21.790Z,5.37
2022-12-26T02:33:59.126Z,5.39
2022-12-26T02:36:40.160Z,5.39
2022-12-26T02:39:45.500Z,5.43
2022-12-26T02:42:22.014Z,5.41
2022-12-26T02:45:08.995Z,5.36
2022-12-26T02:47:45.390Z,5.37
2022-12-26T02:50:33.002Z,5.36
2022-12-26T02:53:26.311Z,5.38
2022-12-26T02:56:13.411Z,5.38
2022-12-26T02:58:59.440Z,5.38
2022-12-26T03:01:45.894Z,5.40
2022-12-26T03:04:31.835Z,5.36
2022-12-26T03:07:16.438Z,5.37
2022-12-26T03:09:58.592Z,5.36
2022-12-26T03:12:48.471Z,5.43
2022-12-26T03:15:19.957Z,5.44
2022-12-26T03:17:49.111Z,5.43
2022-12-26T03:20:23.139Z,5.42
2022-12-26T03:22:56.137Z,5.44
2022-12-26T03:25:42.669Z,5.46
2022-12-26T03:28:14.043Z,5.52
2022-12-26T03:30:50.386Z,5.48
2022-12-26T03:33:33.677Z,5.51
2022-12-26T03:36:06.388Z,5.50
2022-12-26T03:38:38.139Z,5.50
2022-12-26T03:41:23.917Z,5.50
2022-12-26T03:44:15.459Z,5.52
2022-12-26T03:47:06.136Z,5.53
2022-12-26T03:49:52.229Z,5.53
2022-12-26T03:52:40.071Z,5.60
2022-12-26T03:55:29.627Z,5.57
2022-12-26T03:58:16.524Z,5.61
2022-12-26T04:00:59.411Z,5.62
2022-12-26T04:03:43.335Z,5.62
2022-12-26T04:06:31.844Z,5.60
2022-12-26T04:09:19.601Z,5.61
2022-12-26T04:12:16.529Z,5.60
2022-12-26T04:15:02.491Z,5.62
2022-12-26T04:17:48.413Z,5.63
2022-12-26T04:20:22.773Z,5.63
2022-12-26T04:23:07.090Z,5.67
2022-12-26T04:25:58.870Z,5.65
2022-12-26T04:28:40.848Z,5.68
2022-12-26T04:31:26.301Z,5.66
2022-12-26T04:34:13.424Z,5.66
2022-12-26T04:37:00.441Z,5.69
2022-12-26T04:39:45.775Z,5.70
2022-12-26T04:42:31.571Z,5.71
2022-12-26T04:45:01.741Z,5.72
2022-12-26T04:47:33.230Z,5.70
2022-12-26T04:50:15.532Z,5.69
2022-12-26T04:52:57.976Z,5.74
2022-12-26T04:55:28.339Z,5.73
2022-12-26T04:58:00.988Z,5.75
2022-12-26T05:00:31.300Z,5.69
2022-12-26T05:03:18.251Z,5.73
2022-12-26T05:06:03.971Z,5.75
2022-12-26T05:08:49.229Z,5.76
2022-12-26T05:11:18.769Z,5.79
2022-12-26T05:13:50.812Z,5.81
2022-12-26T05:16:32.743Z,5.85
2022-12-26T05:19:14.672Z,5.85
2022-12-26T05:21:56.672Z,5.86
2022-12-26T05:24:38.869Z,5.89
2022-12-26T05:27:21.210Z,5.87
2022-12-26T05:29:53.407Z,5.89
2022-12-26T05:32:35.827Z,5.87
2022-12-26T05:35:05.347Z,5.93
2022-12-26T05:37:35.420Z,5.93
2022-12-26T05:40:05.118Z,5.89
2022-12-26T05:42:34.589Z,5.94
2022-12-26T05:45:07.240Z,5.92
2022-12-26T05:47:36.610Z,5.94
2022-12-26T05:50:06.475Z,5.95
2022-12-26T05:52:36.108Z,5.94
2022-12-26T05:55:05.829Z,5.98
2022-12-26T05:57:35.387Z,5.95
2022-12-26T06:00:09.162Z,5.96
2022-12-26T06:02:38.652Z,5.97
2022-12-26T06:05:09.088Z,5.99
2022-12-26T06:07:38.575Z,5.99
2022-12-26T06:10:09.291Z,6.00
2022-12-26T06:12:38.866Z,6.02
2022-12-26T06:15:12.859Z,6.03
2022-12-26T06:17:42.665Z,6.02
2022-12-26T06:20:12.988Z,6.04
2022-12-26T06:22:42.431Z,6.03
2022-12-26T06:25:12.634Z,6.04
2022-12-26T06:27:42.094Z,6.05
2022-12-26T06:30:15.026Z,6.06
2022-12-26T06:32:44.515Z,6.08
2022-12-26T06:35:13.982Z,6.07
2022-12-26T06:37:43.363Z,6.07
2022-12-26T06:40:13.617Z,6.08
2022-12-26T06:42:43.065Z,6.07
2022-12-26T06:45:15.459Z,6.07
2022-12-26T06:47:45.027Z,6.11
2022-12-26T06:50:14.474Z,6.13
2022-12-26T06:52:43.927Z,6.12
2022-12-26T06:55:13.371Z,6.14
2022-12-26T06:57:42.763Z,6.16
2022-12-26T07:00:16.893Z,6.19
2022-12-26T07:02:46.417Z,6.20
2022-12-26T07:05:16.224Z,6.20
2022-12-26T07:07:45.671Z,6.21
2022-12-26T07:10:15.341Z,6.24
2022-12-26T07:12:44.710Z,6.25
2022-12-26T07:15:17.233Z,6.27
2022-12-26T07:17:46.679Z,6.29
2022-12-26T07:20:16.176Z,6.29
2022-12-26T07:22:45.547Z,6.31
2022-12-26T07:25:15.362Z,6.32
2022-12-26T07:27:44.811Z,6.33
2022-12-26T07:30:17.114Z,6.37
2022-12-26T07:32:46.500Z,6.37
2022-12-26T07:35:16.137Z,6.37
2022-12-26T07:37:45.556Z,6.38
2022-12-26T07:40:15.935Z,6.41
2022-12-26T07:42:45.446Z,6.41
2022-12-26T07:45:18.233Z,6.41
2022-12-26T07:47:47.604Z,6.42
2022-12-26T07:50:17.192Z,6.45
2022-12-26T07:52:46.624Z,6.44
2022-12-26T07:55:16.067Z,6.44
2022-12-26T07:57:49.354Z,6.46
2022-12-26T08:00:22.647Z,6.47
2022-12-26T08:02:53.551Z,6.46
2022-12-26T08:05:23.345Z,6.50
2022-12-26T08:07:52.842Z,6.53
2022-12-26T08:10:22.215Z,6.54
2022-12-26T08:12:51.691Z,6.55
2022-12-26T08:15:23.969Z,6.57
2022-12-26T08:17:53.343Z,6.57
2022-12-26T08:20:22.728Z,6.60
2022-12-26T08:22:52.141Z,6.62
2022-12-26T08:25:22.099Z,6.66
2022-12-26T08:27:51.796Z,6.66
2022-12-26T08:30:23.781Z,6.67
2022-12-26T08:32:54.161Z,6.72
2022-12-26T08:35:23.601Z,6.72
2022-12-26T08:37:53.031Z,6.74
2022-12-26T08:40:39.763Z,6.74
2022-12-26T08:43:32.013Z,6.80
2022-12-26T08:46:06.975Z,6.80
2022-12-26T08:48:37.483Z,6.80
2022-12-26T08:51:09.363Z,6.83
2022-12-26T08:53:39.639Z,6.83
2022-12-26T08:56:11.026Z,6.84
2022-12-26T08:58:40.506Z,6.80
2022-12-26T09:01:15.185Z,6.81
2022-12-26T09:03:45.167Z,6.81
2022-12-26T09:06:16.425Z,6.77
2022-12-26T09:08:46.093Z,6.79
2022-12-26T09:11:17.107Z,6.80
2022-12-26T09:13:47.597Z,6.82
2022-12-26T09:16:21.643Z,6.84
2022-12-26T09:18:52.060Z,6.83
2022-12-26T09:21:21.490Z,6.86
2022-12-26T09:23:50.862Z,6.86
2022-12-26T09:26:22.421Z,6.91
2022-12-26T09:28:51.835Z,6.91
2022-12-26T09:31:25.093Z,6.92
2022-12-26T09:33:54.992Z,6.93
2022-12-26T09:36:26.141Z,6.91
2022-12-26T09:38:56.085Z,6.92
2022-12-26T09:41:50.506Z,6.92
2022-12-26T09:44:22.819Z,6.99
2022-12-26T09:47:00.643Z,6.98
2022-12-26T09:49:33.448Z,6.98
2022-12-26T09:52:05.258Z,6.99
2022-12-26T09:54:41.073Z,7.03
2022-12-26T09:57:20.275Z,7.05
2022-12-26T09:59:53.142Z,7.06
2022-12-26T10:02:26.879Z,7.06
2022-12-26T10:04:57.254Z,7.07
2022-12-26T10:07:31.981Z,7.07
2022-12-26T10:10:10.194Z,7.08
2022-12-26T10:12:49.348Z,7.08
2022-12-26T10:15:30.874Z,7.09
2022-12-26T10:18:13.016Z,7.12
2022-12-26T10:20:58.607Z,7.16
2022-12-26T10:23:34.988Z,7.15
2022-12-26T10:26:10.939Z,7.17
2022-12-26T10:28:47.209Z,7.17
2022-12-26T10:31:22.430Z,7.20
2022-12-26T10:33:57.642Z,7.19
2022-12-26T10:36:34.746Z,7.19
2022-12-26T10:39:05.437Z,7.19
2022-12-26T10:41:37.475Z,7.18
2022-12-26T10:44:07.231Z,7.20
2022-12-26T10:46:59.895Z,7.24
2022-12-26T10:49:31.960Z,7.30
2022-12-26T10:52:03.124Z,7.29
2022-12-26T10:54:33.040Z,7.35
2022-12-26T10:57:04.972Z,7.39
2022-12-26T10:59:43.529Z,7.42
2022-12-26T11:02:26.027Z,7.45
2022-12-26T11:05:15.968Z,7.49
2022-12-26T11:07:59.552Z,7.50
2022-12-26T11:10:31.303Z,7.48
2022-12-26T11:13:03.974Z,7.47
2022-12-26T11:15:35.881Z,7.53
2022-12-26T11:18:20.618Z,7.52
2022-12-26T11:20:53.359Z,7.51
2022-12-26T11:23:29.020Z,7.49
2022-12-26T11:25:59.637Z,7.43
2022-12-26T11:28:32.701Z,7.48
2022-12-26T11:31:03.262Z,7.50
2022-12-26T11:33:34.770Z,7.50
2022-12-26T11:36:13.457Z,7.49
2022-12-26T11:38:51.008Z,7.52
2022-12-26T11:41:39.548Z,7.49
2022-12-26T11:44:18.745Z,7.53
2022-12-26T11:46:52.971Z,7.55
2022-12-26T11:49:29.321Z,7.59
2022-12-26T11:52:02.941Z,7.54
2022-12-26T11:54:41.392Z,7.53
2022-12-26T11:57:22.320Z,7.54
2022-12-26T11:59:52.670Z,7.59
2022-12-26T12:02:30.770Z,7.64
2022-12-26T12:05:04.190Z,7.57
2022-12-26T12:07:52.867Z,7.60
2022-12-26T12:10:50.699Z,7.53
2022-12-26T12:13:29.965Z,7.54
2022-12-26T12:16:02.865Z,7.59
2022-12-26T12:18:42.357Z,7.54
2022-12-26T12:21:18.434Z,7.58
2022-12-26T12:24:07.657Z,7.61
2022-12-26T12:26:40.657Z,7.55
2022-12-26T12:29:23.072Z,7.49
2022-12-26T12:32:03.749Z,7.41
2022-12-26T12:34:46.366Z,7.40
2022-12-26T12:37:23.988Z,7.38
2022-12-26T12:40:02.333Z,7.42
2022-12-26T12:42:43.288Z,7.43
2022-12-26T12:45:27.185Z,7.45
2022-12-26T12:48:07.202Z,7.48
2022-12-26T12:50:41.074Z,7.51
2022-12-26T12:53:18.409Z,7.59
2022-12-26T12:56:03.546Z,7.67
2022-12-26T12:58:37.885Z,7.68
2022-12-26T13:01:10.882Z,7.70
2022-12-26T13:03:44.840Z,7.79
2022-12-26T13:06:18.008Z,7.83
2022-12-26T13:08:51.004Z,7.81
2022-12-26T13:11:29.065Z,7.84
2022-12-26T13:14:02.211Z,7.86
2022-12-26T13:16:33.864Z,7.86
2022-12-26T13:19:07.220Z,7.83
2022-12-26T13:21:39.584Z,7.86
2022-12-26T13:24:25.132Z,7.85
2022-12-26T13:27:02.719Z,7.81
2022-12-26T13:29:37.872Z,8.13
2022-12-26T13:32:16.549Z,7.96
2022-12-26T13:34:46.262Z,7.77
2022-12-26T13:37:57.111Z,7.64
2022-12-26T13:40:29.381Z,7.49
2022-12-26T13:43:17.459Z,7.31
2022-12-26T13:45:53.881Z,7.05
2022-12-26T13:49:08.215Z,6.49
2022-12-26T13:52:02.525Z,6.15
2022-12-26T13:54:33.291Z,5.92
2022-12-26T13:57:14.109Z,5.80
2022-12-26T13:59:54.486Z,5.74
2022-12-26T14:03:15.840Z,5.68
2022-12-26T14:05:38.036Z,5.68
2022-12-26T14:08:11.765Z,5.67
2022-12-26T14:10:44.173Z,5.64
2022-12-26T14:13:33.742Z,5.61
2022-12-26T14:16:10.833Z,5.61
2022-12-26T14:18:47.885Z,5.49
2022-12-26T14:21:35.066Z,5.34
2022-12-26T14:24:14.200Z,5.21
2022-12-26T14:26:49.762Z,5.16
2022-12-26T14:29:24.709Z,5.10
2022-12-26T14:32:13.006Z,5.00
2022-12-26T14:34:55.638Z,5.00
2022-12-26T14:37:31.677Z,4.98
2022-12-26T14:40:10.427Z,4.99
2022-12-26T14:43:14.286Z,4.97
2022-12-26T14:45:47.174Z,4.93
2022-12-26T14:48:49.902Z,4.87
2022-12-26T14:51:34.415Z,4.74
2022-12-26T14:54:22.306Z,4.75
2022-12-26T14:56:52.743Z,4.74
2022-12-26T14:59:32.242Z,4.70
2022-12-26T15:02:12.872Z,4.68
2022-12-26T15:04:53.981Z,4.67
2022-12-26T15:08:04.959Z,4.64
2022-12-26T15:11:10.710Z,4.63
2022-12-26T15:14:04.565Z,4.69
2022-12-26T15:16:57.974Z,4.67
2022-12-26T15:20:03.855Z,4.69
2022-12-26T15:23:04.667Z,4.67
2022-12-26T15:26:05.163Z,4.65
2022-12-26T15:29:21.985Z,4.60
2022-12-26T15:32:00.430Z,4.51
2022-12-26T15:34:51.402Z,4.40
2022-12-26T15:37:35.722Z,4.31
2022-12-26T15:40:15.398Z,4.22
2022-12-26T15:42:57.562Z,4.14
2022-12-26T15:45:45.056Z,4.05
2022-12-26T15:48:25.660Z,4.05
2022-12-26T15:51:02.793Z,4.10
2022-12-26T15:53:41.062Z,4.00
2022-12-26T15:56:36.792Z,4.06
2022-12-26T15:59:29.814Z,3.95
2022-12-26T16:01:59.885Z,3.88
2022-12-26T16:04:33.020Z,3.88
2022-12-26T16:07:10.878Z,3.87
2022-12-26T16:09:46.511Z,3.85
2022-12-26T16:12:30.320Z,3.88
2022-12-26T16:15:04.709Z,3.91
2022-12-26T16:17:34.415Z,3.85
2022-12-26T16:20:40.142Z,3.83
2022-12-26T16:23:10.691Z,3.80
2022-12-26T16:25:40.198Z,3.76
2022-12-26T16:28:14.159Z,3.71
2022-12-26T16:30:43.890Z,3.74
2022-12-26T16:33:14.913Z,3.75
2022-12-26T16:35:44.927Z,3.77
2022-12-26T16:38:17.701Z,3.70
2022-12-26T16:40:48.598Z,3.75
2022-12-26T16:43:34.640Z,3.77
2022-12-26T16:46:06.458Z,3.84
2022-12-26T16:48:36.828Z,3.83
2022-12-26T16:51:09.155Z,3.78
2022-12-26T16:53:46.250Z,3.72
2022-12-26T16:56:27.220Z,3.76
2022-12-26T16:59:09.697Z,3.73
2022-12-26T17:01:42.376Z,3.72
2022-12-26T17:04:22.545Z,3.69
2022-12-26T17:06:54.417Z,3.58
2022-12-26T17:09:25.001Z,3.55
2022-12-26T17:11:57.754Z,3.53
2022-12-26T17:14:31.828Z,3.54
2022-12-26T17:17:02.096Z,3.47
2022-12-26T17:19:33.545Z,3.44
2022-12-26T17:22:25.058Z,3.44
2022-12-26T17:24:54.777Z,3.46
2022-12-26T17:27:26.328Z,3.43
2022-12-26T17:30:00.646Z,3.38
2022-12-26T17:32:35.090Z,3.44
2022-12-26T17:35:07.649Z,3.40
2022-12-26T17:37:37.564Z,3.33
2022-12-26T17:40:23.487Z,3.32
2022-12-26T17:42:55.509Z,3.35
2022-12-26T17:45:29.716Z,3.32
2022-12-26T17:48:00.398Z,3.31
2022-12-26T17:50:33.374Z,3.26
2022-12-26T17:53:07.121Z,3.26
2022-12-26T17:55:36.900Z,3.27
2022-12-26T17:58:06.417Z,3.21
2022-12-26T18:00:39.669Z,3.19
2022-12-26T18:03:09.665Z,3.19
2022-12-26T18:05:39.696Z,3.15
2022-12-26T18:08:09.582Z,3.14
2022-12-26T18:10:39.598Z,3.13
2022-12-26T18:13:11.694Z,3.12
2022-12-26T18:15:43.763Z,3.13
2022-12-26T18:18:23.625Z,3.10
2022-12-26T18:20:53.497Z,3.09
2022-12-26T18:23:23.091Z,3.11
2022-12-26T18:25:54.754Z,3.02
2022-12-26T18:28:24.360Z,3.02
2022-12-26T18:30:57.728Z,3.01
2022-12-26T18:33:27.202Z,3.01
2022-12-26T18:36:00.756Z,3.00
2022-12-26T18:38:32.531Z,3.07
2022-12-26T18:41:02.625Z,2.93
2022-12-26T18:43:32.378Z,2.93
2022-12-26T18:46:04.508Z,2.94
2022-12-26T18:48:34.076Z,2.93
2022-12-26T18:51:04.839Z,2.86
2022-12-26T18:53:34.330Z,2.88
2022-12-26T18:56:03.699Z,2.87
2022-12-26T18:58:33.189Z,2.91
2022-12-26T19:01:06.339Z,2.87
2022-12-26T19:03:35.985Z,2.84
2022-12-26T19:06:05.490Z,2.88
2022-12-26T19:08:35.019Z,2.81
2022-12-26T19:11:04.864Z,2.78
2022-12-26T19:13:36.229Z,2.76
2022-12-26T19:16:08.826Z,2.77
2022-12-26T19:18:38.622Z,2.75
2022-12-26T19:21:08.628Z,2.71
2022-12-26T19:23:38.162Z,2.72
2022-12-26T19:26:11.869Z,2.74
2022-12-26T19:28:42.192Z,2.72
2022-12-26T19:31:16.619Z,2.66
2022-12-26T19:33:46.343Z,2.70
2022-12-26T19:36:16.337Z,2.72
2022-12-26T19:38:45.938Z,2.62
2022-12-26T19:41:17.410Z,2.61
2022-12-26T19:43:46.947Z,2.59
2022-12-26T19:46:19.037Z,2.54
2022-12-26T19:48:48.634Z,2.53
2022-12-26T19:51:19.362Z,2.50
2022-12-26T19:53:49.332Z,2.50
2022-12-26T19:56:20.994Z,2.50
2022-12-26T19:58:56.079Z,2.45
2022-12-26T20:01:30.917Z,2.43
2022-12-26T20:04:01.678Z,2.44
2022-12-26T20:06:33.758Z,2.38
2022-12-26T20:09:05.598Z,2.39
2022-12-26T20:11:37.098Z,2.39
2022-12-26T20:14:08.384Z,2.35
2022-12-26T20:19:32.427Z,2.39
2022-12-26T20:22:01.914Z,2.39
2022-12-26T20:24:31.443Z,2.38
2022-12-26T20:27:00.960Z,2.39
2022-12-26T20:29:30.454Z,2.39
2022-12-26T20:32:03.085Z,2.34
2022-12-26T20:34:32.566Z,2.32
2022-12-26T20:37:02.057Z,2.27
2022-12-26T20:39:32.071Z,2.31
2022-12-26T20:42:01.892Z,2.29
2022-12-26T20:44:31.372Z,2.29
2022-12-26T20:47:03.444Z,2.26
2022-12-26T20:49:33.004Z,2.32
2022-12-26T20:52:02.533Z,2.28
2022-12-26T20:54:32.090Z,2.25
2022-12-26T20:57:01.633Z,2.29
2022-12-26T20:59:31.112Z,2.28
2022-12-26T21:02:03.448Z,2.23
2022-12-26T21:04:33.191Z,2.27
2022-12-26T21:07:02.659Z,2.29
2022-12-26T21:09:32.241Z,2.30
2022-12-26T21:12:01.907Z,2.28
2022-12-26T21:14:31.861Z,2.37
2022-12-26T21:17:03.926Z,2.43
2022-12-26T21:19:33.461Z,2.45
2022-12-26T21:22:03.296Z,2.45
2022-12-26T21:24:34.545Z,2.48
2022-12-26T21:27:04.190Z,2.51
2022-12-26T21:29:35.651Z,2.51
2022-12-26T21:32:08.464Z,2.49
2022-12-26T21:34:38.988Z,2.51
2022-12-26T21:37:21.002Z,2.53
2022-12-26T21:39:50.760Z,2.51
2022-12-26T21:42:20.763Z,2.46
2022-12-26T21:44:50.462Z,2.46
2022-12-26T21:47:22.548Z,2.39
2022-12-26T21:49:52.301Z,2.37
2022-12-26T21:52:21.849Z,2.35
2022-12-26T21:55:03.789Z,2.32
2022-12-26T21:57:35.117Z,2.29
2022-12-26T22:00:06.067Z,2.22
2022-12-26T22:02:52.478Z,2.18
2022-12-26T22:05:24.039Z,2.15
2022-12-26T22:07:55.591Z,2.13
2022-12-26T22:10:37.797Z,2.11
2022-12-26T22:13:08.036Z,2.12
2022-12-26T22:15:50.103Z,2.10
2022-12-26T22:18:22.676Z,2.08
2022-12-26T22:20:52.125Z,2.12
2022-12-26T22:23:21.638Z,2.07
2022-12-26T22:26:00.621Z,2.02
2022-12-26T22:28:30.631Z,1.99
2022-12-26T22:31:00.936Z,1.94
2022-12-26T22:33:34.439Z,1.98
2022-12-26T22:36:08.307Z,2.00
2022-12-26T22:38:38.602Z,2.03
2022-12-26T22:41:08.615Z,1.96
2022-12-26T22:43:38.419Z,1.92
2022-12-26T22:46:08.464Z,1.94
2022-12-26T22:48:41.913Z,1.92
2022-12-26T22:51:11.960Z,1.88
2022-12-26T22:53:42.461Z,1.90
2022-12-26T22:56:12.691Z,1.91
2022-12-26T22:58:42.267Z,1.88
2022-12-26T23:01:16.151Z,1.85
2022-12-26T23:03:48.429Z,1.90
2022-12-26T23:06:23.008Z,1.87
2022-12-26T23:08:54.607Z,1.87
2022-12-26T23:11:30.295Z,1.85
2022-12-26T23:14:05.021Z,1.84
2022-12-26T23:16:37.003Z,1.85
2022-12-26T23:19:27.943Z,1.84
2022-12-26T23:21:57.832Z,1.82
2022-12-26T23:24:29.985Z,1.89
2022-12-26T23:27:21.649Z,1.89
2022-12-26T23:30:04.747Z,1.86
2022-12-26T23:32:35.485Z,1.82
2022-12-26T23:35:08.730Z,1.79
2022-12-26T23:37:38.387Z,1.79
2022-12-26T23:40:09.260Z,1.81
2022-12-26T23:42:38.839Z,1.81
2022-12-26T23:45:09.926Z,1.77
2022-12-26T23:47:40.103Z,1.78
2022-12-26T23:50:14.274Z,1.71
2022-12-26T23:52:43.829Z,1.72
2022-12-26T23:55:13.620Z,1.69
2022-12-26T23:57:43.152Z,1.70
